Terminal Aerodrome Forecast
Issued by NWS Goodland, KS

Home | Current Version | Previous Version | Text Only | Print | Product List | Glossary On
Versions: 1 2 3 4 5 6 7 8 9 10 11 12 13 14 15 16 17
000
FTUS43 KGLD 171120
TAFGLD
TAF
KGLD 171120Z 1712/1812 16011KT P6SM SCT250 WS020/16050KT
     FM171700 15012G20KT P6SM SCT250
     FM172000 23025G40KT P6SM SCT250
     FM172300 33035G50KT P6SM SCT200
      TEMPO 1723/1803 3SM BLDU
     FM180500 34020G30KT P6SM SKC=

USA.gov is the U.S. government's official web portal to all federal, state and local government web resources and services.